Flight Track Log - Related Links

Times and Time Zones

All times are in EDT time to prevent confusion due to time zone crossing. See the EGF4446 flight status page for this flight to view local times or setup timezone preferences in your user account.

Time Position Orientation Groundspeed Altitude Reporting Facility
EDT Latitude Longitude Course Direction KTS MPH feet Rate Location/Type
Tue 06:18:37 AM 38.8192 -77.0358 74° East 158 182 1,100  Level Washington Center
Tue 06:19:38 AM 38.7631 -77.0294 175° South 184 212 3,000 1,785 Climbing Washington Center
Tue 06:20:00 AM 38.9224 -76.7220 57° Northeast  Level FlightAware Approximate
Tue 06:20:38 AM 38.7453 -76.9519 106° East 179 206 4,700  Level Washington Center
Tue 06:21:00 AM 38.9567 -76.6181 70° East  Level FlightAware Approximate
Tue 06:21:39 AM 38.8022 -76.8783 45° Northeast 176 203 7,100  Level Washington Center
Tue 06:22:00 AM 38.9847 -76.5105 74° East  Level FlightAware Approximate
Tue 06:22:39 AM 38.8592 -76.8100 43° Northeast 230 265 10,100  Level Washington Center
Tue 06:23:00 AM 39.0090 -76.4014 74° East  Level FlightAware Approximate
Tue 06:23:37 AM 38.9142 -76.7389 45° Northeast 255 293 12,300  Level Washington Center
Tue 06:24:38 AM 38.9442 -76.6431 68° East 272 313 14,600 1,736 Climbing Washington Center
Tue 06:25:38 AM 38.9742 -76.5369 70° East 287 330 15,800 689 Climbing Washington Center
Tue 06:26:40 AM 39.0086 -76.4169 70° East 321 369 16,000 99 Climbing Washington Center
Tue 06:27:39 AM 39.0322 -76.2783 78° East 356 410 16,000 359 Level Washington Center
Tue 06:28:37 AM 39.0414 -76.1394 85° East 385 443 16,700 508 Climbing Washington Center
Tue 06:29:37 AM 39.0481 -76.0058 86° East 385 443 17,000 149 Climbing Washington Center
Tue 06:30:38 AM 39.0547 -75.8694 86° East 385 443 17,000  Level Washington Center
Tue 06:31:39 AM 39.0592 -75.7253 88° East 385 443 17,000  Level Washington Center
Tue 06:32:36 AM 39.0633 -75.5969 88° East 390 449 17,000  Level Washington Center
Tue 06:33:38 AM 39.0694 -75.4553 87° East 390 449 17,000  Level Washington Center
Tue 06:35:30 AM 39.1256 -75.1975 74° East 415 478 17,000  Level New York Center
Tue 06:36:31 AM 39.1925 -75.0811 53° Northeast 401 461 17,000  Level New York Center
Tue 06:37:31 AM 39.2572 -74.9617 55° Northeast 401 461 17,000  Level New York Center
Tue 06:38:30 AM 39.3219 -74.8394 56° Northeast 401 461 17,000  Level New York Center
Tue 06:39:30 AM 39.3933 -74.7036 56° Northeast 411 473 17,000  Level New York Center
Tue 06:40:31 AM 39.4558 -74.5808 57° Northeast 411 473 17,000 50 Level New York Center
Tue 06:41:29 AM 39.5225 -74.4553 55° Northeast 411 473 17,100 50 Climbing New York Center
Tue 06:42:31 AM 39.5822 -74.3453 55° Northeast 411 473 17,100 -397 Level New York Center
Tue 06:43:30 AM 39.6550 -74.2086 55° Northeast 411 473 16,300 -1,200 Descending New York Center
Tue 06:44:31 AM 39.7350 -74.1047 45° Northeast 405 466 14,700 -1,587 Descending New York Center
Tue 06:45:31 AM 39.8189 -74.0142 40° Northeast 392 451 13,100 -1,627 Descending New York Center
Tue 06:46:29 AM 39.9000 -73.9475 32° Northeast 392 451 11,500 -1,100 Descending New York Center
Tue 06:47:31 AM 39.9831 -73.8808 32° Northeast 368 423 10,900 -344 Descending New York Center
Tue 06:48:31 AM 40.0703 -73.8142 30° Northeast 336 387 10,800 -611 Descending New York Center
Tue 06:49:19 AM 40.1333 -73.7667 30° Northeast 317 365 9,800 -1,300 Descending New York TRACON
Tue 06:50:31 AM 40.2167 -73.6833 37° Northeast 309 356 8,200 -1,333 Descending New York TRACON
Tue 06:51:25 AM 40.2833 -73.6500 21° North 301 346 7,000 -1,462 Descending New York TRACON
Tue 06:52:30 AM 40.3628 -73.6147 19° North 294 338 5,300 -1,381 Descending New York Center
Tue 06:53:31 AM 40.4500 -73.5500 29° Northeast 288 331 4,100 -835 Descending New York TRACON
Tue 06:54:25 AM 40.5167 -73.5333 11° North 277 319 3,700 -526 Descending New York TRACON
Tue 06:55:25 AM 40.5833 -73.5000 21° North 270 311 3,100 -300 Descending New York TRACON
Tue 06:56:25 AM 40.6667 -73.4833 North 264 304 3,100 -52 Level New York TRACON
Tue 06:57:20 AM 40.7167 -73.4667 14° North 249 287 3,000 -522 Descending New York TRACON
Tue 06:58:20 AM 40.7667 -73.5167 323° Northwest 187 215 2,100 -432 Descending New York TRACON
Tue 06:59:25 AM 40.7833 -73.5833 288° West 165 190 2,100  Level New York TRACON
Tue 07:00:26 AM 40.7500 -73.6333 229° Southwest 172 198 2,100  Level New York TRACON

Login

Don't have an account? Register now (free) for customized features, flight alerts, and more!